| time (UTC) | temp F | wind direction | speed knots | gust knots | rain 1hr in | rain 24hr in | rain mn in | humidity % | barometer mb |
| 20260507051510 | 61 | 129 | 3.5 | 7.8 | 0.00 | 0.00 | 0.00 | 57 | 1013.1 |
| 20260507050018 | 60 | 115 | 1.7 | 7.8 | 0.00 | 0.00 | 0.00 | 61 | 1013.0 |
| 20260507044521 | 59 | 94 | 2.6 | 5.2 | 0.00 | 0.00 | 0.00 | 64 | 1013.0 |
| 20260507043007 | 56 | 321 | 0.0 | 0.0 | 0.00 | 0.00 | 0.00 | 72 | 1013.0 |
| 20260507041506 | 54 | 291 | 0.0 | 0.0 | 0.00 | 0.00 | 0.00 | 76 | 1012.9 |
| 20260507040007 | 51 | 291 | 0.0 | 0.9 | 0.00 | 0.00 | 0.00 | 80 | 1012.9 |
| 20260507034503 | 49 | 289 | 0.0 | 1.7 | 0.00 | 0.00 | 0.00 | 81 | 1012.7 |
| 20260507033008 | 47 | 289 | 0.0 | 2.6 | 0.00 | 0.00 | 0.00 | 82 | 1012.5 |
| 20260507031559 | 47 | 274 | 0.0 | 1.7 | 0.00 | 0.00 | 0.00 | 82 | 1012.4 |
| 20260507030108 | 46 | 273 | 0.0 | 1.7 | 0.00 | 0.00 | 0.00 | 82 | 1012.3 |
| 20260507024612 | 46 | 273 | 0.9 | 2.6 | 0.00 | 0.00 | 0.00 | 82 | 1012.2 |
| 20260507023054 | 47 | 234 | 0.0 | 0.0 | 0.00 | 0.00 | 0.00 | 82 | 1012.2 |
| 20260507021613 | 47 | 234 | 0.0 | 1.7 | 0.00 | 0.00 | 0.00 | 81 | 1012.2 |
| 20260507020100 | 47 | 102 | 0.0 | 0.0 | 0.00 | 0.00 | 0.00 | 81 | 1012.4 |
| 20260507014608 | 48 | 102 | 0.0 | 0.0 | 0.00 | 0.00 | 0.00 | 80 | 1012.3 |
| 20260507013051 | 49 | 102 | 0.0 | 0.0 | 0.00 | 0.00 | 0.00 | 80 | 1012.2 |
| 20260507011543 | 49 | 102 | 0.0 | 0.0 | 0.00 | 0.00 | 0.00 | 78 | 1012.2 |
| 20260507010042 | 50 | 102 | 0.0 | 0.0 | 0.00 | 0.00 | 0.00 | 77 | 1012.1 |
| 20260507004541 | 52 | 102 | 0.0 | 0.0 | 0.00 | 0.00 | 0.00 | 76 | 1012.1 |
| 20260507003034 | 53 | 102 | 0.0 | 0.0 | 0.00 | 0.00 | 0.00 | 75 | 1012.0 |
| 20260507001529 | 54 | 102 | 0.0 | 0.0 | 0.00 | 0.00 | 0.00 | 74 | 1012.0 |
| 20260507000028 | 55 | 102 | 0.0 | 1.7 | 0.00 | 0.00 | 0.00 | 70 | 1012.0 |
| 20260506234525 | 55 | 102 | 0.0 | 1.7 | 0.00 | 0.00 | 0.00 | 70 | 1012.0 |
| 20260506233023 | 56 | 102 | 0.0 | 0.9 | 0.00 | 0.00 | 0.00 | 67 | 1012.0 |
| 20260506231520 | 57 | 102 | 0.9 | 2.6 | 0.00 | 0.00 | 0.00 | 66 | 1012.0 |
| 20260506230020 | 57 | 134 | 0.0 | 0.9 | 0.00 | 0.00 | 0.00 | 66 | 1012.0 |
| 20260506224517 | 58 | 134 | 0.0 | 2.6 | 0.00 | 0.00 | 0.00 | 64 | 1012.0 |
| 20260506223014 | 59 | 98 | 0.0 | 2.6 | 0.00 | 0.00 | 0.00 | 62 | 1012.0 |
| 20260506221510 | 60 | 85 | 0.0 | 2.6 | 0.00 | 0.00 | 0.00 | 61 | 1011.8 |
| 20260506220007 | 61 | 129 | 0.0 | 3.5 | 0.00 | 0.00 | 0.00 | 60 | 1011.8 |
| 20260506214505 | 61 | 104 | 0.9 | 2.6 | 0.00 | 0.00 | 0.00 | 59 | 1011.6 |
| 20260506213006 | 62 | 125 | 0.9 | 4.3 | 0.00 | 0.00 | 0.00 | 58 | 1011.6 |
| 20260506211601 | 62 | 122 | 1.7 | 7.0 | 0.00 | 0.00 | 0.00 | 58 | 1011.5 |
| 20260506210058 | 63 | 103 | 2.6 | 7.0 | 0.00 | 0.00 | 0.00 | 57 | 1011.5 |
| 20260506204600 | 63 | 116 | 0.9 | 3.5 | 0.00 | 0.00 | 0.00 | 57 | 1011.2 |
| 20260506203056 | 64 | 74 | 1.7 | 3.5 | 0.00 | 0.00 | 0.00 | 56 | 1011.1 |
| 20260506201620 | 65 | 81 | 2.6 | 6.1 | 0.00 | 0.00 | 0.00 | 54 | 1010.9 |
| 20260506200055 | 66 | 111 | 2.6 | 8.7 | 0.00 | 0.00 | 0.00 | 53 | 1010.8 |
| 20260506194555 | 65 | 58 | 2.6 | 6.1 | 0.00 | 0.00 | 0.00 | 53 | 1010.8 |
| 20260506193056 | 66 | 112 | 1.7 | 6.1 | 0.00 | 0.00 | 0.00 | 53 | 1010.7 |
| 20260506191555 | 65 | 73 | 0.9 | 3.5 | 0.00 | 0.00 | 0.00 | 53 | 1010.7 |
| 20260506190052 | 64 | 50 | 0.9 | 2.6 | 0.00 | 0.00 | 0.00 | 55 | 1010.5 |
| 20260506184555 | 66 | 54 | 0.0 | 1.7 | 0.00 | 0.00 | 0.00 | 55 | 1010.4 |
| 20260506183054 | 67 | 48 | 0.9 | 3.5 | 0.00 | 0.00 | 0.00 | 49 | 1010.1 |
| 20260506181551 | 69 | 86 | 0.9 | 3.5 | 0.00 | 0.00 | 0.00 | 45 | 1009.9 |
| 20260506180051 | 70 | 89 | 0.9 | 2.6 | 0.00 | 0.00 | 0.00 | 44 | 1009.7 |
| 20260506174550 | 71 | 106 | 0.9 | 3.5 | 0.00 | 0.00 | 0.00 | 42 | 1009.5 |
| 20260506173112 | 72 | 108 | 0.9 | 2.6 | 0.00 | 0.00 | 0.00 | 42 | 1009.3 |
| 20260506171555 | 73 | 84 | 0.9 | 2.6 | 0.00 | 0.00 | 0.00 | 40 | 1009.2 |
| 20260506170050 | 75 | 98 | 0.9 | 4.3 | 0.00 | 0.00 | 0.00 | 38 | 1009.2 |
| 20260506164549 | 76 | 85 | 0.9 | 5.2 | 0.00 | 0.00 | 0.00 | 37 | 1009.2 |
| 20260506163101 | 77 | 104 | 1.7 | 6.1 | 0.00 | 0.00 | 0.00 | 36 | 1009.2 |
| 20260506161547 | 78 | 60 | 3.5 | 7.0 | 0.00 | 0.00 | 0.00 | 33 | 1009.2 |
| 20260506160046 | 78 | 117 | 3.5 | 7.8 | 0.00 | 0.00 | 0.00 | 32 | 1009.2 |
| 20260506154550 | 79 | 83 | 2.6 | 7.8 | 0.00 | 0.00 | 0.00 | 32 | 1009.2 |
| 20260506153047 | 79 | 122 | 3.5 | 10.4 | 0.00 | 0.00 | 0.00 | 31 | 1009.3 |
| 20260506151544 | 79 | 95 | 4.3 | 9.6 | 0.00 | 0.00 | 0.00 | 32 | 1009.2 |
| 20260506150042 | 80 | 74 | 2.6 | 8.7 | 0.00 | 0.00 | 0.00 | 32 | 1009.4 |
| 20260506144544 | 80 | 101 | 5.2 | 9.6 | 0.00 | 0.00 | 0.00 | 30 | 1009.3 |
| 20260506143041 | 80 | 81 | 2.6 | 9.6 | 0.00 | 0.00 | 0.00 | 30 | 1009.4 |
| 20260506141539 | 81 | 144 | 2.6 | 8.7 | 0.00 | 0.00 | 0.00 | 29 | 1009.4 |
| 20260506140049 | 81 | 152 | 2.6 | 8.7 | 0.00 | 0.00 | 0.00 | 28 | 1009.4 |
| 20260506134537 | 81 | 45 | 4.3 | 8.7 | 0.00 | 0.00 | 0.00 | 30 | 1009.5 |
| 20260506133037 | 80 | 75 | 4.3 | 12.2 | 0.00 | 0.00 | 0.00 | 29 | 1009.5 |
| 20260506131535 | 81 | 77 | 5.2 | 8.7 | 0.00 | 0.00 | 0.00 | 30 | 1009.6 |
| 20260506130035 | 81 | 360 | 4.3 | 11.3 | 0.00 | 0.00 | 0.00 | 31 | 1009.7 |
| 20260506124532 | 81 | 65 | 1.7 | 7.0 | 0.00 | 0.00 | 0.00 | 29 | 1009.8 |
| 20260506123031 | 80 | 120 | 2.6 | 11.3 | 0.00 | 0.00 | 0.00 | 32 | 1009.9 |
| 20260506121530 | 81 | 127 | 2.6 | 9.6 | 0.00 | 0.00 | 0.00 | 32 | 1010.1 |
| 20260506120032 | 81 | 125 | 4.3 | 8.7 | 0.00 | 0.00 | 0.00 | 32 | 1010.3 |
| 20260506114527 | 80 | 62 | 1.7 | 8.7 | 0.00 | 0.00 | 0.00 | 32 | 1010.4 |
| 20260506113024 | 80 | 164 | 2.6 | 9.6 | 0.00 | 0.00 | 0.00 | 32 | 1010.5 |
| 20260506111527 | 79 | 76 | 2.6 | 8.7 | 0.00 | 0.00 | 0.00 | 31 | 1010.6 |
| 20260506110021 | 79 | 156 | 4.3 | 8.7 | 0.00 | 0.00 | 0.00 | 35 | 1010.8 |
| 20260506104518 | 78 | 156 | 4.3 | 8.7 | 0.00 | 0.00 | 0.00 | 35 | 1010.9 |
| 20260506103020 | 78 | 162 | 5.2 | 9.6 | 0.00 | 0.00 | 0.00 | 35 | 1011.0 |
| 20260506101513 | 77 | 172 | 3.5 | 12.2 | 0.00 | 0.00 | 0.00 | 36 | 1011.0 |
| 20260506100013 | 78 | 140 | 4.3 | 8.7 | 0.00 | 0.00 | 0.00 | 36 | 1011.1 |
| 20260506094513 | 77 | 99 | 2.6 | 10.4 | 0.00 | 0.00 | 0.00 | 38 | 1011.1 |
| 20260506093013 | 76 | 123 | 5.2 | 8.7 | 0.00 | 0.00 | 0.00 | 39 | 1011.2 |
| 20260506091508 | 76 | 86 | 5.2 | 7.8 | 0.00 | 0.00 | 0.00 | 41 | 1011.2 |
| 20260506090003 | 74 | 92 | 4.3 | 10.4 | 0.00 | 0.00 | 0.00 | 42 | 1011.3 |
| 20260506084503 | 74 | 151 | 3.5 | 9.6 | 0.00 | 0.00 | 0.00 | 43 | 1011.3 |
| 20260506083058 | 73 | 169 | 3.5 | 7.8 | 0.00 | 0.00 | 0.00 | 46 | 1011.3 |
| 20260506081554 | 71 | 85 | 5.2 | 10.4 | 0.00 | 0.00 | 0.00 | 47 | 1011.3 |
| 20260506073045 | 67 | 77 | 4.3 | 8.7 | 0.00 | 0.00 | 0.00 | 54 | 1011.5 |
| 20260506071542 | 66 | 88 | 3.5 | 7.0 | 0.00 | 0.00 | 0.00 | 56 | 1011.4 |
| 20260506061537 | 62 | 142 | 4.3 | 9.6 | 0.00 | 0.00 | 0.00 | 60 | 1011.4 |